Salt Lake City, UT

12:30 PM MST on February 13, 2016 (GMT -0700)
West Valley City (4580S) | | Change Station
CLOSE
Current Station
Personal Weather Station
Location: West Valley City, UT
Elevation: 4403 ft
Nearby Weather Stations

Elev 4403 ft 40.67 °N, 111.98 °W | Updated 7 minutes ago

Fog
Fog
38.5 °F
Feels Like 38 °F
N
1.1
Wind Variable Wind from WNW

Today
High -- | Low -- °F
--% Chance of Precip.
Yesterday
High -- | Low -- °F
Precip. -- in
Pressure 30.33 in
Visibility 2.0 miles
Clouds Scattered Clouds 1000 ft
Windchill 38 °F
Dew Point 31 °F
Humidity 74%
Rainfall 0.00 in
Snow Depth Not available.
7:24 AM 5:59 PM
Waxing Crescent, 33% visible
METAR KU42 131915Z AUTO 00000KT 2SM SCT010 01/M01 A3033 RMK AO1 T00051014
Pressure 30.33 in
Visibility 2.0 miles
Clouds Scattered Clouds 1000 ft
Windchill 38 °F
Dew Point 31 °F
Humidity 74%
Rainfall 0.00 in
Snow Depth Not available.
7:24 AM 5:59 PM
Waxing Crescent, 33% visible
METAR KU42 131915Z AUTO 00000KT 2SM SCT010 01/M01 A3033 RMK AO1 T00051014

10-Day Weather Forecast

Almanac

Astronomy

Feb. 13, 2016 Rise Set
Actual Time
Civil Twilight
Nautical Twilight
Astronomical Twilight
Moon
Length of Visible Light
Length of Day
Tomorrow will be .
, % of the Moon is Illuminated

Today's Extremes

State Highs State Lows

Community

WunderPhotos

Upload Photos

1,892,642 photos uploaded!

WunderBlog® & News

Nearby

Air Quality

  Air Quality AQ Index Pollutant
Not available.

Snow Depth

Station Depth Elevation

Earthquake Activity

City Distance Mag. Time & Date
Minimum magnitude displayed is 2.5.

Coastal Water Temperatures

Place Temperature

Stations

Nearby Weather Stations

Station Location Temp. Windchill Dew Point Humidity Wind Precip. Elev Updated Type
                   

Watches & Warnings

There are currently no watches in effect.